Time;durP1;ratioP1;P1;durP2;ratioP2;P2;SDS_P1;SDS_P2;PMS_P1;PMS_P2;Temp;Humidity;BMP_temperature;BMP_pressure;BME280_temperature;BME280_humidity;BME280_pressure;Samples;Min_cycle;Max_cycle;Signal;HPM_P1;HPM_P2
2023/05/18 00:00:20;;;;;;;1.85;1.58;;;;;;;19.82;42.50;102976.38;5126521;27;20031;-69
2023/05/18 00:02:49;;;;;;;2.20;1.48;;;;;;;19.81;42.59;102977.34;5124335;27;20031;-68
2023/05/18 00:05:17;;;;;;;3.08;1.48;;;;;;;19.78;42.57;102969.66;5123464;27;20035;-67
2023/05/18 00:07:43;;;;;;;2.03;1.45;;;;;;;19.81;42.50;102960.63;5122250;27;20122;-67
2023/05/18 00:10:10;;;;;;;2.67;1.50;;;;;;;19.76;42.61;102970.75;5122816;27;20370;-67
2023/05/18 00:12:35;;;;;;;2.95;1.58;;;;;;;19.75;42.66;102975.22;5125711;27;20057;-69
2023/05/18 00:15:01;;;;;;;2.90;1.52;;;;;;;19.76;42.48;102970.75;5124968;27;20035;-67
2023/05/18 00:17:26;;;;;;;2.50;1.60;;;;;;;19.75;42.55;102971.69;5124916;27;20059;-67
2023/05/18 00:19:52;;;;;;;4.32;1.90;;;;;;;19.73;42.70;102974.47;5123095;27;20039;-68
2023/05/18 00:22:19;;;;;;;1.48;1.30;;;;;;;19.68;42.78;102974.03;5118687;27;20042;-68
2023/05/18 00:24:47;;;;;;;4.35;2.72;;;;;;;19.67;42.65;102971.50;5121206;27;20397;-68
2023/05/18 00:27:14;;;;;;;1.60;1.50;;;;;;;19.67;42.79;102972.34;5119647;27;20031;-68
2023/05/18 00:29:39;;;;;;;2.65;1.55;;;;;;;19.67;42.75;102971.50;5120870;27;20054;-68
2023/05/18 00:32:05;;;;;;;2.53;1.70;;;;;;;19.62;42.74;102982.47;5119393;27;20033;-68
2023/05/18 00:34:31;;;;;;;3.10;1.60;;;;;;;19.66;42.79;102983.06;5118147;27;20424;-67
2023/05/18 00:36:57;;;;;;;1.95;1.70;;;;;;;19.64;42.81;102985.81;5113865;27;20042;-68
2023/05/18 00:39:22;;;;;;;2.67;1.73;;;;;;;19.63;42.77;102986.78;5118515;27;20035;-68
2023/05/18 00:41:48;;;;;;;3.22;1.70;;;;;;;19.58;42.75;102987.19;5116156;27;20034;-67
2023/05/18 00:44:14;;;;;;;2.15;1.52;;;;;;;19.61;43.02;102986.09;5120237;27;20051;-67
2023/05/18 00:46:40;;;;;;;2.83;1.58;;;;;;;19.53;43.05;102983.19;5117807;27;20044;-67
2023/05/18 00:49:06;;;;;;;2.38;1.65;;;;;;;19.55;42.88;102986.56;5121130;27;20706;-68
2023/05/18 00:51:33;;;;;;;2.35;1.98;;;;;;;19.57;42.93;102987.31;5119628;27;20057;-68
2023/05/18 00:54:01;;;;;;;2.08;1.52;;;;;;;19.54;42.88;102980.44;5121096;27;20051;-68
2023/05/18 00:56:28;;;;;;;3.90;1.70;;;;;;;19.58;42.83;102986.34;5118236;27;20027;-68
2023/05/18 00:58:56;;;;;;;2.13;1.35;;;;;;;19.55;43.03;102981.28;5119762;27;20039;-68
2023/05/18 01:01:28;;;;;;;1.75;1.50;;;;;;;19.53;42.96;102983.19;5113918;27;20027;-68
2023/05/18 01:03:55;;;;;;;1.65;1.40;;;;;;;19.52;42.89;102979.69;5117296;27;20167;-67
2023/05/18 01:06:24;;;;;;;2.03;1.50;;;;;;;19.52;42.97;102986.78;5118091;27;20476;-68
2023/05/18 01:08:52;;;;;;;2.65;1.58;;;;;;;19.51;42.95;102983.31;5118375;27;20046;-67
2023/05/18 01:11:30;;;;;;;3.03;1.80;;;;;;;19.48;42.97;102980.91;5125274;27;20121;-68
2023/05/18 01:14:17;;;;;;;1.83;1.48;;;;;;;19.50;42.78;102981.63;5116886;27;20751;-68
2023/05/18 01:16:53;;;;;;;2.47;1.40;;;;;;;19.42;43.13;102984.06;5115863;27;20050;-68
2023/05/18 01:19:22;;;;;;;4.43;1.40;;;;;;;19.43;43.13;102983.09;5118575;27;20159;-68
2023/05/18 01:21:51;;;;;;;3.45;1.40;;;;;;;19.46;43.08;102987.31;5117146;27;20027;-68
2023/05/18 01:24:47;;;;;;;1.90;1.58;;;;;;;19.44;43.05;102984.78;5117661;27;20042;-68
2023/05/18 01:27:15;;;;;;;3.20;2.00;;;;;;;19.43;43.16;102976.97;5094442;27;20070;-68
2023/05/18 01:29:44;;;;;;;4.72;1.73;;;;;;;19.40;43.15;102982.53;5115582;27;20019;-68
2023/05/18 01:32:18;;;;;;;2.50;1.77;;;;;;;19.43;43.07;102982.28;5117113;27;20038;-66
2023/05/18 01:34:43;;;;;;;2.03;1.33;;;;;;;19.44;42.95;102982.16;5119626;27;20027;-68
2023/05/18 01:37:09;;;;;;;2.25;1.52;;;;;;;19.42;43.08;102988.53;5119409;27;20043;-68
2023/05/18 01:39:34;;;;;;;3.45;1.52;;;;;;;19.39;43.12;102983.47;5112165;27;20042;-68
2023/05/18 01:42:05;;;;;;;2.17;1.65;;;;;;;19.40;43.04;102980.72;5117807;27;20059;-67
2023/05/18 01:44:41;;;;;;;2.33;1.50;;;;;;;19.35;43.26;102988.16;5121017;27;20039;-67
2023/05/18 01:47:12;;;;;;;1.52;1.42;;;;;;;19.37;43.19;102991.50;5117936;27;20030;-67
2023/05/18 01:49:47;;;;;;;1.58;1.48;;;;;;;19.37;43.14;102986.22;5127892;27;20100;-69
2023/05/18 01:52:26;;;;;;;2.03;1.50;;;;;;;19.36;43.08;102989.00;5120035;27;20039;-67
2023/05/18 01:54:55;;;;;;;2.40;1.53;;;;;;;19.35;43.14;102993.44;5115696;27;20035;-67
2023/05/18 01:57:26;;;;;;;4.50;1.58;;;;;;;19.36;43.03;102996.91;5117307;27;20551;-67
2023/05/18 01:59:53;;;;;;;2.75;1.67;;;;;;;19.30;43.32;102988.53;5117688;28;21040;-66
2023/05/18 02:02:19;;;;;;;2.70;1.52;;;;;;;19.33;43.09;102996.22;5119135;28;20061;-67
2023/05/18 02:04:44;;;;;;;3.20;1.50;;;;;;;19.35;43.20;102995.25;5113988;28;20043;-68
2023/05/18 02:07:10;;;;;;;2.80;1.65;;;;;;;19.28;43.19;102993.09;5115549;28;20044;-67
2023/05/18 02:09:36;;;;;;;3.85;1.73;;;;;;;19.28;43.33;102994.91;5116349;28;20054;-67
2023/05/18 02:12:02;;;;;;;2.92;1.60;;;;;;;19.30;43.20;102987.69;5119343;27;20034;-67
2023/05/18 02:14:27;;;;;;;2.97;1.90;;;;;;;19.32;43.37;102991.88;5113679;28;20034;-67
2023/05/18 02:16:53;;;;;;;3.47;1.80;;;;;;;19.27;43.29;102987.94;5117444;28;20308;-67
2023/05/18 02:19:20;;;;;;;2.50;1.20;;;;;;;19.27;43.20;102994.06;5116237;28;21711;-68
2023/05/18 02:21:46;;;;;;;3.00;1.60;;;;;;;19.27;43.24;102996.72;5113585;28;20060;-67
2023/05/18 02:24:12;;;;;;;2.85;1.50;;;;;;;19.26;43.29;102987.13;5119505;27;20043;-67
2023/05/18 02:26:38;;;;;;;2.03;1.63;;;;;;;19.23;43.25;102990.00;5115454;27;20035;-67
2023/05/18 02:29:10;;;;;;;2.08;1.30;;;;;;;19.25;43.25;102990.72;5118912;28;20100;-67
2023/05/18 02:31:36;;;;;;;2.97;1.65;;;;;;;19.22;43.17;102988.34;5115407;28;20053;-68
2023/05/18 02:34:02;;;;;;;1.60;1.40;;;;;;;19.21;43.28;102991.06;5117058;28;20516;-68
2023/05/18 02:36:35;;;;;;;3.38;1.65;;;;;;;19.22;43.11;102990.97;5118333;27;20039;-68
2023/05/18 02:39:05;;;;;;;1.73;1.45;;;;;;;19.23;43.30;102991.81;5137943;27;20074;-68
2023/05/18 02:41:35;;;;;;;3.22;1.50;;;;;;;19.23;43.01;102989.16;5123186;27;20425;-67
2023/05/18 02:44:02;;;;;;;3.35;1.45;;;;;;;19.21;43.23;102985.78;5118179;27;20507;-68
2023/05/18 02:46:28;;;;;;;3.13;1.70;;;;;;;19.23;43.19;102995.28;5121781;27;20074;-67
2023/05/18 02:48:53;;;;;;;2.58;1.42;;;;;;;19.23;43.20;102989.16;5122077;27;20040;-67
2023/05/18 02:51:20;;;;;;;2.20;1.77;;;;;;;19.21;43.22;102985.78;5120257;27;20095;-67
2023/05/18 02:53:47;;;;;;;1.50;1.40;;;;;;;19.19;43.27;102988.56;5114681;27;20080;-68
2023/05/18 02:56:16;;;;;;;2.58;1.50;;;;;;;19.21;43.16;102984.00;5117941;27;20162;-67
2023/05/18 02:58:56;;;;;;;1.58;1.48;;;;;;;19.19;43.23;102985.91;5119893;27;20060;-67
2023/05/18 03:01:27;;;;;;;1.77;1.35;;;;;;;19.20;43.16;102990.22;5120142;27;20039;-67
2023/05/18 03:03:56;;;;;;;2.10;1.52;;;;;;;19.16;43.29;102988.81;5116977;27;20074;-67
2023/05/18 03:06:25;;;;;;;2.45;1.75;;;;;;;19.16;43.33;102987.97;5138988;27;20292;-68
2023/05/18 03:08:53;;;;;;;1.70;1.40;;;;;;;19.16;43.16;102982.69;5138078;27;20069;-68
2023/05/18 03:11:22;;;;;;;1.70;1.42;;;;;;;19.17;43.10;102989.66;5100344;27;20027;-68
2023/05/18 03:13:49;;;;;;;2.97;1.45;;;;;;;19.18;43.30;102986.03;5116706;27;20465;-66
2023/05/18 03:16:15;;;;;;;1.80;1.70;;;;;;;19.12;43.18;102984.75;5117326;27;20081;-68
2023/05/18 03:18:40;;;;;;;3.42;1.88;;;;;;;19.15;43.26;102984.50;5121474;27;20638;-67
2023/05/18 03:21:07;;;;;;;2.13;1.50;;;;;;;19.16;43.28;102990.59;5116769;27;20036;-67
2023/05/18 03:23:33;;;;;;;2.95;1.77;;;;;;;19.10;43.37;102996.38;5116917;27;20761;-68
2023/05/18 03:26:01;;;;;;;2.30;1.65;;;;;;;19.11;43.35;102988.34;5117291;27;20646;-67
2023/05/18 03:28:28;;;;;;;5.00;2.08;;;;;;;19.13;43.23;102989.06;5119553;27;20035;-67
2023/05/18 03:30:54;;;;;;;2.67;1.80;;;;;;;19.09;43.36;102994.72;5118577;27;20039;-67
2023/05/18 03:33:20;;;;;;;2.38;1.55;;;;;;;19.10;43.33;102993.75;5117476;27;20043;-68
2023/05/18 03:35:48;;;;;;;3.00;1.60;;;;;;;19.09;43.24;102992.06;5102315;27;20031;-67
2023/05/18 03:38:14;;;;;;;2.20;1.33;;;;;;;19.06;43.49;102992.31;5118584;27;20024;-65
2023/05/18 03:40:44;;;;;;;4.28;1.90;;;;;;;19.09;43.37;103002.63;5123255;27;20023;-67
2023/05/18 03:43:10;;;;;;;3.72;1.58;;;;;;;19.08;43.41;103003.59;5113436;27;20047;-67
2023/05/18 03:45:37;;;;;;;4.50;1.77;;;;;;;19.07;43.32;103001.91;5136330;27;20048;-67
2023/05/18 03:48:03;;;;;;;2.38;1.63;;;;;;;19.07;43.49;102997.47;5115449;27;20034;-67
2023/05/18 03:50:29;;;;;;;3.00;1.80;;;;;;;19.06;43.41;103005.53;5117735;27;20084;-66
2023/05/18 03:52:56;;;;;;;2.13;1.63;;;;;;;19.09;43.26;102998.19;5116038;27;20050;-67
2023/05/18 03:55:22;;;;;;;2.38;1.52;;;;;;;19.06;43.43;103001.09;5119813;27;20039;-67
2023/05/18 03:57:48;;;;;;;3.10;1.35;;;;;;;19.07;43.22;103004.56;5121151;27;20038;-67
2023/05/18 04:00:14;;;;;;;2.58;1.58;;;;;;;19.04;43.37;102999.53;5125837;27;20038;-67
2023/05/18 04:02:43;;;;;;;2.08;1.67;;;;;;;19.01;43.38;102996.13;5123741;27;20087;-68
2023/05/18 04:05:09;;;;;;;2.33;1.55;;;;;;;19.05;43.35;103009.97;5118051;27;20035;-68
2023/05/18 04:07:42;;;;;;;3.03;1.58;;;;;;;19.01;43.33;102998.78;5122455;27;20484;-67
2023/05/18 04:10:10;;;;;;;2.08;1.27;;;;;;;19.03;43.35;102998.69;5125741;27;20088;-67
2023/05/18 04:12:36;;;;;;;2.65;1.75;;;;;;;19.04;43.26;103003.00;5120344;27;20109;-67
2023/05/18 04:15:02;;;;;;;1.48;1.38;;;;;;;19.04;43.25;103002.16;5120981;27;20040;-67
2023/05/18 04:17:28;;;;;;;1.27;1.17;;;;;;;19.07;43.25;103005.41;5122382;27;20446;-67
2023/05/18 04:19:54;;;;;;;2.20;1.67;;;;;;;19.02;43.25;103015.47;5124667;27;20116;-67
2023/05/18 04:22:20;;;;;;;2.13;1.83;;;;;;;19.02;43.39;103018.09;5119632;27;20126;-67
2023/05/18 04:24:46;;;;;;;2.05;1.67;;;;;;;19.01;43.31;103016.44;5121242;27;20031;-68
2023/05/18 04:27:12;;;;;;;1.88;1.60;;;;;;;19.02;43.28;103018.09;5138630;27;21158;-68
2023/05/18 04:29:39;;;;;;;2.03;1.50;;;;;;;19.00;43.26;103015.59;5118238;27;20069;-67
2023/05/18 04:32:09;;;;;;;2.08;1.60;;;;;;;19.04;43.19;103023.28;5118101;27;20424;-66
2023/05/18 04:34:36;;;;;;;;;;;;;;;19.05;43.28;103025.81;5120278;27;20122;-67
2023/05/18 04:37:05;;;;;;;1.60;1.50;;;;;;;19.02;43.27;103026.03;5118472;27;19911;-67
2023/05/18 04:39:33;;;;;;;3.92;1.75;;;;;;;19.00;43.35;103025.31;5116663;27;20031;-67
2023/05/18 04:41:59;;;;;;;1.80;1.65;;;;;;;19.00;43.27;103028.78;5122708;27;20535;-67
2023/05/18 04:44:27;;;;;;;1.85;1.60;;;;;;;19.02;43.28;103031.31;5120532;27;20039;-67
2023/05/18 04:46:55;;;;;;;2.03;1.83;;;;;;;19.02;43.17;103039.22;5137002;27;20846;-67
2023/05/18 04:49:21;;;;;;;2.55;1.38;;;;;;;19.01;43.26;103040.19;5120663;27;20535;-68
2023/05/18 04:51:54;;;;;;;1.83;1.50;;;;;;;18.97;43.31;103034.31;5117934;27;20039;-67
2023/05/18 04:54:24;;;;;;;2.15;1.67;;;;;;;19.00;43.35;103051.72;5119590;27;20023;-67
2023/05/18 04:56:51;;;;;;;3.67;1.60;;;;;;;19.00;43.24;103049.06;5122925;27;20074;-67
2023/05/18 04:59:17;;;;;;;3.83;1.70;;;;;;;19.01;43.06;103046.31;5101726;27;20035;-67
2023/05/18 05:01:43;;;;;;;2.17;1.55;;;;;;;19.03;43.24;103043.56;5120407;27;20035;-67
2023/05/18 05:04:10;;;;;;;1.58;1.48;;;;;;;19.00;43.12;103041.16;5117293;27;20062;-67
2023/05/18 05:06:35;;;;;;;2.55;1.85;;;;;;;19.01;43.12;103048.13;5111549;27;20039;-68
2023/05/18 05:09:01;;;;;;;2.90;1.30;;;;;;;18.99;43.29;103056.16;5117806;27;20037;-67
2023/05/18 05:11:27;;;;;;;2.70;1.50;;;;;;;18.99;43.30;103052.69;5120349;27;20047;-67
2023/05/18 05:13:53;;;;;;;2.13;1.50;;;;;;;19.00;43.12;103057.84;5119038;27;20050;-68
2023/05/18 05:16:18;;;;;;;2.58;1.98;;;;;;;18.99;43.30;103055.31;5132300;27;20039;-67
2023/05/18 05:18:44;;;;;;;3.85;1.58;;;;;;;18.98;43.12;103053.63;5115704;27;20060;-67
2023/05/18 05:21:09;;;;;;;2.55;1.20;;;;;;;18.98;43.22;103056.28;5133910;27;20088;-67
2023/05/18 05:23:35;;;;;;;2.88;1.90;;;;;;;18.92;43.38;103054.97;5100225;27;20042;-67
2023/05/18 05:26:01;;;;;;;2.33;1.20;;;;;;;18.97;43.08;103059.88;5114412;27;20551;-68
2023/05/18 05:28:28;;;;;;;1.90;1.50;;;;;;;18.95;43.11;103052.09;5122873;27;20042;-68
2023/05/18 05:30:53;;;;;;;2.55;1.50;;;;;;;18.98;43.24;103057.13;5111737;27;20039;-67
2023/05/18 05:33:19;;;;;;;1.38;1.25;;;;;;;18.96;43.31;103059.03;5115641;27;20035;-67
2023/05/18 05:35:45;;;;;;;2.38;1.42;;;;;;;18.97;43.28;103062.53;5119338;27;20116;-67
2023/05/18 05:38:11;;;;;;;1.88;1.60;;;;;;;18.94;43.18;103057.50;5116830;27;20780;-68
2023/05/18 05:40:36;;;;;;;2.17;1.92;;;;;;;18.93;43.25;103056.66;5115539;27;20072;-68
2023/05/18 05:43:04;;;;;;;2.22;1.63;;;;;;;18.97;43.05;103065.16;5112974;27;20039;-67
2023/05/18 05:45:30;;;;;;;2.03;1.40;;;;;;;18.98;43.09;103065.03;5116873;27;20442;-67
2023/05/18 05:48:00;;;;;;;2.03;1.50;;;;;;;18.99;43.11;103073.81;5114707;27;20050;-67
2023/05/18 05:50:26;;;;;;;1.60;1.33;;;;;;;18.97;43.21;103066.00;5114110;27;20769;-67
2023/05/18 05:52:55;;;;;;;1.57;1.37;;;;;;;19.00;43.02;103073.69;5134475;27;20043;-67
2023/05/18 05:55:22;;;;;;;2.45;1.33;;;;;;;19.00;42.97;103073.69;5115308;27;20472;-68
2023/05/18 05:57:48;;;;;;;2.08;1.33;;;;;;;19.02;43.08;103081.47;5115557;27;20104;-67
2023/05/18 06:00:14;;;;;;;1.63;1.27;;;;;;;19.01;43.08;103074.53;5119664;27;20738;-67
2023/05/18 06:02:57;;;;;;;2.38;1.70;;;;;;;19.04;43.00;103076.94;5119083;28;20221;-68
2023/05/18 06:05:39;;;;;;;1.70;1.60;;;;;;;19.05;42.85;103083.06;5120760;27;20054;-67
2023/05/18 06:08:08;;;;;;;1.92;1.25;;;;;;;19.05;42.92;103083.91;5124809;28;20122;-67
2023/05/18 06:10:33;;;;;;;4.30;1.65;;;;;;;19.07;42.95;103081.16;5122248;28;20035;-68
2023/05/18 06:12:59;;;;;;;3.17;1.45;;;;;;;19.07;42.74;103076.69;5120585;27;20039;-67
2023/05/18 06:15:32;;;;;;;1.92;1.48;;;;;;;19.09;42.77;103076.56;5125640;27;20035;-67
2023/05/18 06:17:58;;;;;;;1.55;1.45;;;;;;;19.10;42.74;103072.97;5124925;27;20091;-67
2023/05/18 06:20:25;;;;;;;3.60;1.50;;;;;;;19.11;42.67;103079.94;5125709;27;20488;-67
2023/05/18 06:22:52;;;;;;;2.30;1.48;;;;;;;19.13;42.65;103083.28;5120968;27;20477;-68
2023/05/18 06:25:44;;;;;;;2.55;1.45;;;;;;;19.13;42.73;103085.94;5120833;27;20051;-68
2023/05/18 06:28:18;;;;;;;1.40;1.30;;;;;;;19.15;42.69;103084.84;5123607;27;20031;-68
2023/05/18 06:30:47;;;;;;;2.10;1.75;;;;;;;19.14;42.70;103091.09;5119480;27;20035;-67
2023/05/18 06:33:20;;;;;;;4.07;1.58;;;;;;;19.16;42.66;103085.69;5119750;27;20095;-67
2023/05/18 06:35:45;;;;;;;1.25;1.20;;;;;;;19.18;42.90;103084.59;5124640;27;20126;-67
2023/05/18 06:38:11;;;;;;;2.40;1.60;;;;;;;19.22;42.57;103093.16;5124055;27;20118;-68
2023/05/18 06:40:36;;;;;;;1.30;1.20;;;;;;;19.22;42.65;103085.22;5120974;27;20039;-68
2023/05/18 06:43:02;;;;;;;1.85;1.33;;;;;;;19.25;42.72;103087.63;5139914;27;20612;-68
2023/05/18 06:45:41;;;;;;;1.00;1.00;;;;;;;19.31;42.67;103087.13;5112589;27;20059;-68
2023/05/18 06:48:33;;;;;;;1.63;1.20;;;;;;;19.37;42.57;103086.63;5116607;27;21174;-68
2023/05/18 06:50:59;;;;;;;1.58;1.45;;;;;;;19.45;42.51;103089.50;5116098;27;20446;-68
2023/05/18 06:53:26;;;;;;;1.83;1.40;;;;;;;19.49;42.56;103087.47;5121197;27;20019;-68
2023/05/18 06:55:51;;;;;;;2.10;1.48;;;;;;;19.50;42.38;103089.97;5108771;27;20096;-68
2023/05/18 06:58:19;;;;;;;2.65;1.50;;;;;;;19.52;42.38;103088.03;5126125;27;20116;-68
2023/05/18 07:00:45;;;;;;;2.05;1.30;;;;;;;19.54;42.42;103093.25;5122011;27;20131;-68
2023/05/18 07:03:10;;;;;;;1.17;1.00;;;;;;;19.48;42.34;103081.34;5116420;27;20043;-69
2023/05/18 07:05:36;;;;;;;2.33;1.50;;;;;;;19.60;42.37;103092.75;5119793;27;20096;-68
2023/05/18 07:08:03;;;;;;;3.30;1.35;;;;;;;19.63;42.27;103091.69;5121352;27;20054;-68
2023/05/18 07:10:29;;;;;;;2.58;1.67;;;;;;;19.66;42.30;103086.13;5119026;27;20039;-66
2023/05/18 07:12:55;;;;;;;2.10;1.60;;;;;;;19.69;42.15;103091.16;5125159;27;20112;-67
2023/05/18 07:15:20;;;;;;;3.75;1.70;;;;;;;19.72;42.19;103088.28;5121382;27;20608;-66
2023/05/18 07:17:46;;;;;;;3.25;1.67;;;;;;;19.71;42.22;103092.72;5120659;27;20039;-67
2023/05/18 07:20:12;;;;;;;1.98;1.55;;;;;;;19.71;42.14;103090.06;5121617;27;20038;-67
2023/05/18 07:22:37;;;;;;;4.03;1.85;;;;;;;19.72;42.22;103088.28;5118356;27;20031;-68
2023/05/18 07:25:03;;;;;;;2.97;1.60;;;;;;;19.71;42.12;103092.72;5117084;27;20127;-69
2023/05/18 07:27:28;;;;;;;2.05;1.35;;;;;;;19.71;42.18;103095.38;5120494;27;20039;-68
2023/05/18 07:29:54;;;;;;;3.83;1.55;;;;;;;19.69;42.19;103094.66;5125864;27;20058;-66
2023/05/18 07:32:20;;;;;;;2.65;1.27;;;;;;;19.70;42.27;103106.06;5123916;27;20035;-66
2023/05/18 07:34:46;;;;;;;2.85;1.38;;;;;;;19.71;42.35;103105.09;5119941;27;20076;-67
2023/05/18 07:37:12;;;;;;;1.75;1.23;;;;;;;19.71;42.21;103103.28;5121713;27;20036;-66
2023/05/18 07:39:38;;;;;;;6.53;1.70;;;;;;;19.73;42.13;103104.00;5122958;27;20741;-66
2023/05/18 07:42:04;;;;;;;3.70;1.52;;;;;;;19.70;41.47;103108.72;5125598;27;20036;-67
2023/05/18 07:44:29;;;;;;;2.67;1.75;;;;;;;19.65;41.41;103106.44;5131399;27;20049;-66
2023/05/18 07:46:55;;;;;;;2.45;1.55;;;;;;;19.67;41.20;103111.59;5125317;27;20035;-66
2023/05/18 07:49:22;;;;;;;4.78;1.70;;;;;;;19.66;41.25;103109.94;5126572;27;20117;-66
2023/05/18 07:51:48;;;;;;;3.33;1.73;;;;;;;19.65;41.06;103100.31;5124229;27;20073;-66
2023/05/18 07:54:14;;;;;;;4.13;1.80;;;;;;;19.68;41.21;103102.72;5124135;27;20111;-69
2023/05/18 07:56:39;;;;;;;6.68;1.70;;;;;;;19.70;41.11;103106.06;5125476;27;20374;-67
2023/05/18 07:59:05;;;;;;;2.17;1.67;;;;;;;19.71;41.14;103102.47;5124652;27;20035;-67
2023/05/18 08:01:31;;;;;;;4.55;2.03;;;;;;;19.72;41.04;103104.97;5125194;27;20080;-66
2023/05/18 08:03:57;;;;;;;2.17;1.52;;;;;;;19.73;40.94;103101.38;5127849;27;20462;-68
2023/05/18 08:06:22;;;;;;;5.43;1.80;;;;;;;19.76;40.86;103106.44;5122442;27;20575;-68
2023/05/18 08:08:48;;;;;;;3.33;1.75;;;;;;;19.82;40.92;103102.44;5126808;27;20207;-68
2023/05/18 08:11:14;;;;;;;3.85;1.50;;;;;;;19.90;40.90;103103.47;5127445;27;20046;-68
2023/05/18 08:13:39;;;;;;;4.20;1.70;;;;;;;19.97;40.70;103101.19;5127878;27;20579;-68
2023/05/18 08:16:05;;;;;;;4.20;1.98;;;;;;;20.04;40.40;103098.88;5124888;27;20027;-69
2023/05/18 08:18:31;;;;;;;1.70;1.60;;;;;;;20.08;40.60;103095.00;5122013;27;20046;-68
2023/05/18 08:20:56;;;;;;;4.75;1.70;;;;;;;20.12;40.34;103091.16;5123377;27;20043;-66
2023/05/18 08:23:23;;;;;;;2.30;1.60;;;;;;;20.15;40.31;103090.91;5124334;27;20038;-67
2023/05/18 08:25:49;;;;;;;3.38;1.60;;;;;;;20.16;40.26;103089.94;5123523;27;20094;-67
2023/05/18 08:28:15;;;;;;;2.53;1.58;;;;;;;20.16;40.17;103079.34;5124438;27;20443;-67
2023/05/18 08:30:40;;;;;;;6.13;1.55;;;;;;;20.22;40.12;103082.31;5122882;27;20035;-67
2023/05/18 08:33:06;;;;;;;2.00;1.80;;;;;;;20.26;40.18;103082.06;5123077;27;20035;-66
2023/05/18 08:35:32;;;;;;;3.67;1.58;;;;;;;20.29;40.27;103089.72;5125506;27;20031;-66
2023/05/18 08:37:58;;;;;;;4.53;1.83;;;;;;;20.30;40.25;103081.69;5126820;27;20023;-66
2023/05/18 08:40:31;;;;;;;2.35;1.70;;;;;;;20.32;40.24;103082.41;5121940;27;20095;-66
2023/05/18 08:43:05;;;;;;;2.78;1.45;;;;;;;20.37;40.51;103084.66;5116617;27;20071;-66
2023/05/18 08:45:44;;;;;;;3.78;1.58;;;;;;;20.39;40.42;103082.72;5119515;27;20147;-66
2023/05/18 08:48:11;;;;;;;2.22;1.38;;;;;;;20.38;40.55;103081.03;5123812;27;20077;-66
2023/05/18 08:50:40;;;;;;;4.32;1.40;;;;;;;20.38;40.56;103073.94;5120426;27;20122;-67
2023/05/18 08:53:08;;;;;;;4.40;1.60;;;;;;;20.39;40.54;103075.59;5122863;27;20027;-66
2023/05/18 08:55:36;;;;;;;2.22;1.63;;;;;;;20.39;40.65;103067.66;5124348;27;20042;-66
2023/05/18 08:58:03;;;;;;;4.15;1.65;;;;;;;20.41;40.47;103075.50;5118973;27;20054;-66
2023/05/18 09:00:29;;;;;;;1.92;1.55;;;;;;;20.39;40.86;103075.59;5118762;27;20031;-66
2023/05/18 09:02:55;;;;;;;3.28;1.73;;;;;;;20.41;40.72;103064.94;5116627;27;20065;-66
2023/05/18 09:05:21;;;;;;;2.90;1.58;;;;;;;20.41;40.70;103078.16;5116782;27;20061;-66
2023/05/18 09:07:49;;;;;;;2.92;1.90;;;;;;;20.41;40.92;103081.63;5121891;27;20061;-66
2023/05/18 09:10:16;;;;;;;1.88;1.30;;;;;;;20.41;40.97;103076.34;5124465;27;20031;-67
2023/05/18 09:12:45;;;;;;;3.92;1.83;;;;;;;20.39;40.95;103074.78;5119620;27;20049;-67
2023/05/18 09:15:12;;;;;;;2.77;1.37;;;;;;;20.37;40.85;103077.56;5121682;27;20525;-67
2023/05/18 09:17:38;;;;;;;2.95;1.63;;;;;;;20.38;40.80;103075.75;5124104;27;20476;-67
2023/05/18 09:20:07;;;;;;;2.25;1.50;;;;;;;20.34;40.90;103077.81;5122193;27;20027;-66
2023/05/18 09:22:39;;;;;;;3.35;1.80;;;;;;;20.34;41.02;103069.88;5122871;27;20054;-67
2023/05/18 09:25:07;;;;;;;3.42;1.83;;;;;;;20.35;41.02;103073.34;5120509;27;20039;-67
2023/05/18 09:27:32;;;;;;;3.95;1.63;;;;;;;20.33;40.89;103068.19;5123447;27;20401;-66
2023/05/18 09:29:58;;;;;;;2.78;1.10;;;;;;;20.34;41.02;103079.63;5122316;27;20116;-67
2023/05/18 09:32:24;;;;;;;3.05;1.40;;;;;;;20.35;40.95;103076.84;5122011;27;20035;-68
2023/05/18 09:34:51;;;;;;;2.55;1.63;;;;;;;20.33;40.85;103070.00;5121187;27;20032;-68
2023/05/18 09:37:20;;;;;;;3.00;1.77;;;;;;;20.35;41.04;103076.00;5124177;27;20043;-68
2023/05/18 09:40:00;;;;;;;2.15;1.60;;;;;;;20.35;41.00;103074.19;5121259;27;20044;-68
2023/05/18 09:42:38;;;;;;;2.88;1.50;;;;;;;20.36;40.98;103069.75;5124282;27;20594;-68
2023/05/18 09:45:22;;;;;;;2.15;1.48;;;;;;;20.36;40.89;103067.09;5123179;27;20111;-68
2023/05/18 09:47:49;;;;;;;1.30;1.20;;;;;;;20.36;40.95;103073.22;5117989;27;20050;-68
2023/05/18 09:50:18;;;;;;;1.40;1.20;;;;;;;20.36;40.93;103070.59;5122134;27;20039;-68
2023/05/18 09:52:44;;;;;;;2.37;1.40;;;;;;;20.36;41.00;103062.63;5123671;27;20047;-67
2023/05/18 09:55:11;;;;;;;2.30;1.45;;;;;;;20.36;41.04;103072.38;5122692;27;20036;-67
2023/05/18 09:57:42;;;;;;;3.75;2.05;;;;;;;20.34;41.14;103071.69;5119057;27;20063;-67
2023/05/18 10:00:12;;;;;;;2.00;1.15;;;;;;;20.32;41.18;103069.16;5125191;27;20050;-67
2023/05/18 10:02:44;;;;;;;1.90;1.42;;;;;;;20.30;41.02;103057.88;5122119;27;20038;-68
2023/05/18 10:05:26;;;;;;;4.25;1.77;;;;;;;20.28;40.98;103053.66;5120442;28;20167;-67
2023/05/18 10:07:53;;;;;;;3.30;1.45;;;;;;;20.30;41.13;103055.22;5119327;28;20035;-68
2023/05/18 10:10:22;;;;;;;2.72;1.80;;;;;;;20.35;40.85;103060.13;5124009;28;20129;-67
2023/05/18 10:12:50;;;;;;;1.80;1.30;;;;;;;20.35;40.89;103058.31;5119935;27;20035;-68
2023/05/18 10:15:18;;;;;;;2.25;1.63;;;;;;;20.31;40.82;103046.31;5118871;28;20091;-67
2023/05/18 10:17:46;;;;;;;3.22;1.58;;;;;;;20.34;41.13;103051.34;5125259;28;20035;-68
2023/05/18 10:20:16;;;;;;;2.15;1.42;;;;;;;20.33;40.88;103054.13;5116645;27;20035;-67
2023/05/18 10:22:45;;;;;;;1.70;1.20;;;;;;;20.33;40.98;103049.69;5119882;28;20071;-66
2023/05/18 10:25:24;;;;;;;2.83;1.70;;;;;;;20.33;41.02;103057.63;5111818;27;20888;-67
2023/05/18 10:27:55;;;;;;;2.40;1.73;;;;;;;20.33;41.03;103046.19;5121960;28;20089;-68
2023/05/18 10:30:22;;;;;;;2.40;1.55;;;;;;;20.33;40.91;103054.97;5121460;28;20034;-67
2023/05/18 10:32:48;;;;;;;1.92;1.48;;;;;;;20.33;40.89;103054.13;5121238;27;20047;-67
2023/05/18 10:35:14;;;;;;;3.47;1.80;;;;;;;20.30;40.88;103047.28;5115884;28;20047;-67
2023/05/18 10:37:47;;;;;;;2.30;1.77;;;;;;;20.30;40.78;103042.00;5120578;27;20111;-66
2023/05/18 10:40:14;;;;;;;2.90;1.80;;;;;;;20.33;40.76;103051.47;5117903;28;20047;-67
2023/05/18 10:42:41;;;;;;;1.80;1.40;;;;;;;20.33;40.88;103041.75;5117981;27;20078;-67
2023/05/18 10:45:08;;;;;;;2.55;1.55;;;;;;;20.33;40.75;103047.03;5114980;28;20104;-67
2023/05/18 10:47:38;;;;;;;1.60;1.30;;;;;;;20.32;40.91;103042.72;5116350;28;20047;-65
2023/05/18 10:50:05;;;;;;;1.63;1.42;;;;;;;20.30;40.78;103042.00;5123460;27;20046;-68
2023/05/18 10:52:31;;;;;;;1.52;1.25;;;;;;;20.32;40.96;103040.06;5121590;28;20505;-67
2023/05/18 10:54:58;;;;;;;1.75;1.60;;;;;;;20.33;40.74;103041.75;5119867;28;21147;-67
2023/05/18 10:57:28;;;;;;;1.52;1.40;;;;;;;20.32;40.84;103044.50;5117764;27;20732;-67
2023/05/18 10:59:54;;;;;;;2.15;1.83;;;;;;;20.30;40.88;103042.00;5124041;27;20084;-66
2023/05/18 11:02:19;;;;;;;3.50;1.80;;;;;;;20.27;40.63;103036.94;5121276;27;20120;-67
2023/05/18 11:04:49;;;;;;;2.30;1.60;;;;;;;20.31;40.86;103032.25;5123609;27;20050;-67
2023/05/18 11:07:15;;;;;;;2.47;1.83;;;;;;;20.27;40.46;103029.00;5121180;27;20512;-67
2023/05/18 11:09:42;;;;;;;1.92;1.45;;;;;;;20.29;40.70;103039.47;5121295;27;20046;-67
2023/05/18 11:12:19;;;;;;;3.60;1.25;;;;;;;20.30;40.82;103033.22;5124460;27;21279;-67
2023/05/18 11:14:50;;;;;;;2.78;1.80;;;;;;;20.30;40.82;103038.53;5121990;27;20062;-67
2023/05/18 11:17:28;;;;;;;2.25;1.27;;;;;;;20.28;40.83;103038.63;5126683;27;20086;-67
2023/05/18 11:20:08;;;;;;;3.55;1.65;;;;;;;20.28;40.67;103035.97;5124292;27;20040;-67
2023/05/18 11:22:58;;;;;;;2.95;2.10;;;;;;;20.28;40.55;103038.63;5124242;27;20035;-67
2023/05/18 11:25:27;;;;;;;1.80;1.70;;;;;;;20.31;40.77;103038.38;5122456;27;20039;-67
2023/05/18 11:27:55;;;;;;;2.08;1.55;;;;;;;20.31;40.67;103030.44;5125085;27;20023;-67